Time;durP1;ratioP1;P1;durP2;ratioP2;P2;SDS_P1;SDS_P2;PMS_P1;PMS_P2;Temp;Humidity;BMP_temperature;BMP_pressure;BME280_temperature;BME280_humidity;BME280_pressure;Samples;Min_cycle;Max_cycle;Signal;HPM_P1;HPM_P2
2023/01/30 00:01:04;;;;;;;24.43;14.93;;;;;;;;;;5105503;28;20172;-73
2023/01/30 00:03:30;;;;;;;26.83;14.90;;;;;;;;;;5113183;27;20702;-73
2023/01/30 00:05:55;;;;;;;31.53;16.97;;;;;;;;;;5111656;27;20179;-74
2023/01/30 00:08:20;;;;;;;21.60;13.43;;;;;;;;;;5106760;27;20216;-73
2023/01/30 00:10:45;;;;;;;23.90;15.47;;;;;;;;;;5113337;27;20179;-74
2023/01/30 00:13:11;;;;;;;22.17;13.87;;;;;;;;;;5102393;27;20557;-74
2023/01/30 00:15:37;;;;;;;25.73;14.80;;;;;;;;;;5102055;27;20211;-74
2023/01/30 00:18:02;;;;;;;22.77;13.83;;;;;;;;;;5101220;27;20183;-74
2023/01/30 00:20:27;;;;;;;24.60;14.07;;;;;;;;;;5096426;28;20180;-74
2023/01/30 00:22:52;;;;;;;21.30;14.90;;;;;;;;;;5100863;28;20182;-74
2023/01/30 00:25:18;;;;;;;23.63;14.40;;;;;;;;;;5100475;28;20203;-74
2023/01/30 00:27:43;;;;;;;23.13;14.50;;;;;;;;;;5084687;28;20175;-74
2023/01/30 00:30:08;;;;;;;23.63;13.80;;;;;;;;;;5102472;27;20171;-74
2023/01/30 00:32:33;;;;;;;22.47;13.87;;;;;;;;;;5101543;27;20199;-73
2023/01/30 00:34:59;;;;;;;24.13;14.57;;;;;;;;;;5106184;27;20191;-74
2023/01/30 00:37:24;;;;;;;23.50;12.93;;;;;;;;;;5109823;27;20179;-74
2023/01/30 00:39:49;;;;;;;18.63;12.43;;;;;;;;;;5081080;28;20180;-74
2023/01/30 00:47:43;;;;;;;17.67;11.73;;;;;;;;;;5101429;28;20901;-73
2023/01/30 00:50:08;;;;;;;19.27;11.00;;;;;;;;;;5086819;28;20191;-75
2023/01/30 00:52:33;;;;;;;19.03;10.17;;;;;;;;;;5101998;28;20180;-74
2023/01/30 00:54:58;;;;;;;17.70;9.63;;;;;;;;;;5103222;27;20203;-74
2023/01/30 00:57:24;;;;;;;19.10;8.23;;;;;;;;;;5101597;28;20297;-74
2023/01/30 00:59:49;;;;;;;14.33;9.17;;;;;;;;;;5101937;28;20160;-73
2023/01/30 01:02:14;;;;;;;12.00;7.87;;;;;;;;;;5110397;28;20811;-74
2023/01/30 01:04:42;;;;;;;10.70;7.17;;;;;;;;;;5100055;28;20223;-74
2023/01/30 01:07:11;;;;;;;14.23;8.07;;;;;;;;;;5083910;28;20478;-75
2023/01/30 01:09:37;;;;;;;12.33;7.50;;;;;;;;;;5096247;28;20179;-74
2023/01/30 01:12:02;;;;;;;13.83;6.40;;;;;;;;;;5101362;28;20259;-74
2023/01/30 01:14:27;;;;;;;14.70;7.60;;;;;;;;;;5100734;28;20683;-74
2023/01/30 01:16:53;;;;;;;13.70;7.83;;;;;;;;;;5083245;28;20175;-75
2023/01/30 01:19:18;;;;;;;14.87;6.90;;;;;;;;;;5099749;28;20772;-72
2023/01/30 01:21:43;;;;;;;12.43;6.37;;;;;;;;;;5100735;28;20175;-74
2023/01/30 01:24:10;;;;;;;11.97;6.60;;;;;;;;;;5107757;28;20269;-74
2023/01/30 01:26:35;;;;;;;8.70;5.60;;;;;;;;;;5100963;28;20190;-74
2023/01/30 01:29:00;;;;;;;10.63;6.40;;;;;;;;;;5108723;27;20183;-74
2023/01/30 01:31:26;;;;;;;11.50;6.23;;;;;;;;;;5105199;27;20581;-73
2023/01/30 01:33:51;;;;;;;14.13;6.67;;;;;;;;;;5111031;28;20277;-74
2023/01/30 01:36:16;;;;;;;13.23;5.97;;;;;;;;;;5110238;28;20172;-74
2023/01/30 01:38:42;;;;;;;11.83;6.63;;;;;;;;;;5112158;28;20205;-73
2023/01/30 01:41:08;;;;;;;16.93;5.80;;;;;;;;;;5111204;28;20186;-75
2023/01/30 01:43:54;;;;;;;11.97;5.43;;;;;;;;;;5112950;28;20175;-73
2023/01/30 01:46:24;;;;;;;10.97;6.30;;;;;;;;;;5108511;28;20183;-75
2023/01/30 01:48:54;;;;;;;9.63;5.30;;;;;;;;;;5106467;28;20175;-73
2023/01/30 01:51:28;;;;;;;12.80;5.70;;;;;;;;;;5110323;28;20202;-73
2023/01/30 01:54:00;;;;;;;18.23;5.27;;;;;;;;;;5092436;28;20690;-74
2023/01/30 01:56:26;;;;;;;7.83;5.43;;;;;;;;;;5112365;28;20186;-73
2023/01/30 01:58:56;;;;;;;12.40;6.13;;;;;;;;;;5113066;28;20172;-73
2023/01/30 02:01:21;;;;;;;9.27;4.30;;;;;;;;;;5109072;28;20551;-75
2023/01/30 02:03:49;;;;;;;10.60;4.00;;;;;;;;;;5109900;28;20279;-73
2023/01/30 02:06:15;;;;;;;10.43;5.27;;;;;;;;;;5113540;28;20207;-73
2023/01/30 02:08:43;;;;;;;9.60;4.40;;;;;;;;;;5108766;27;20199;-75
2023/01/30 02:11:11;;;;;;;10.20;4.80;;;;;;;;;;5109418;28;20190;-73
2023/01/30 02:13:36;;;;;;;11.10;4.87;;;;;;;;;;5110251;28;20276;-73
2023/01/30 02:16:02;;;;;;;8.70;4.40;;;;;;;;;;5110991;28;20294;-73
2023/01/30 02:18:29;;;;;;;13.17;4.73;;;;;;;;;;5110148;28;20188;-74
2023/01/30 02:20:54;;;;;;;10.27;3.93;;;;;;;;;;5109794;28;20630;-74
2023/01/30 02:23:23;;;;;;;13.43;4.60;;;;;;;;;;5089438;28;20275;-74
2023/01/30 02:25:53;;;;;;;9.97;4.40;;;;;;;;;;5105339;28;20203;-74
2023/01/30 02:28:25;;;;;;;12.03;5.43;;;;;;;;;;5097574;28;20171;-74
2023/01/30 02:30:50;;;;;;;11.43;5.13;;;;;;;;;;5105571;28;20172;-75
2023/01/30 02:33:25;;;;;;;11.57;4.10;;;;;;;;;;5109236;28;20540;-75
2023/01/30 02:35:50;;;;;;;8.97;4.73;;;;;;;;;;5088129;28;20299;-75
2023/01/30 02:38:19;;;;;;;11.23;6.63;;;;;;;;;;5092176;28;20264;-75
2023/01/30 02:40:52;;;;;;;11.47;4.20;;;;;;;;;;5105574;28;20183;-75
2023/01/30 02:43:36;;;;;;;12.37;5.07;;;;;;;;;;5109459;28;20175;-74
2023/01/30 02:46:17;;;;;;;8.70;4.33;;;;;;;;;;5111452;27;20187;-76
2023/01/30 02:48:42;;;;;;;9.33;4.27;;;;;;;;;;5099954;28;20649;-74
2023/01/30 02:51:26;;;;;;;14.93;5.57;;;;;;;;;;5106522;28;20183;-74
2023/01/30 02:53:52;;;;;;;12.70;4.63;;;;;;;;;;5103334;28;20803;-73
2023/01/30 02:56:17;;;;;;;16.43;5.17;;;;;;;;;;5102773;28;20266;-73
2023/01/30 02:58:48;;;;;;;14.83;4.67;;;;;;;;;;5085685;28;20588;-73
2023/01/30 03:01:29;;;;;;;8.73;4.63;;;;;;;;;;5103185;28;20255;-75
2023/01/30 03:04:09;;;;;;;9.57;4.27;;;;;;;;;;5102201;28;20260;-73
2023/01/30 03:06:37;;;;;;;12.23;4.37;;;;;;;;;;5102168;28;20278;-76
2023/01/30 03:09:20;;;;;;;9.57;4.20;;;;;;;;;;5084262;28;20175;-75
2023/01/30 03:11:48;;;;;;;10.30;4.77;;;;;;;;;;5102972;28;20188;-75
2023/01/30 03:14:18;;;;;;;11.03;4.80;;;;;;;;;;5101429;28;20690;-75
2023/01/30 03:16:44;;;;;;;12.30;4.47;;;;;;;;;;5103475;28;20219;-75
2023/01/30 03:19:11;;;;;;;12.60;5.10;;;;;;;;;;5084436;28;20167;-75
2023/01/30 03:21:43;;;;;;;9.10;4.57;;;;;;;;;;5108364;28;20180;-75
2023/01/30 03:24:09;;;;;;;11.73;4.73;;;;;;;;;;5111364;28;20275;-75
2023/01/30 03:26:36;;;;;;;17.83;5.77;;;;;;;;;;5109055;28;20243;-75
2023/01/30 03:29:01;;;;;;;13.30;4.80;;;;;;;;;;5098436;28;20187;-75
2023/01/30 03:31:26;;;;;;;11.30;4.33;;;;;;;;;;5111084;28;20192;-75
2023/01/30 03:33:52;;;;;;;7.57;4.37;;;;;;;;;;5104615;28;20192;-74
2023/01/30 03:36:17;;;;;;;17.93;4.40;;;;;;;;;;5111821;27;20215;-75
2023/01/30 03:38:42;;;;;;;11.10;4.17;;;;;;;;;;5109769;27;20191;-75
2023/01/30 03:41:07;;;;;;;12.37;4.10;;;;;;;;;;5108551;28;20194;-75
2023/01/30 03:43:32;;;;;;;6.83;3.40;;;;;;;;;;5111233;28;20175;-75
2023/01/30 03:45:58;;;;;;;10.57;3.97;;;;;;;;;;5112160;27;20187;-75
2023/01/30 03:48:23;;;;;;;8.27;3.83;;;;;;;;;;5105859;28;20182;-75
2023/01/30 03:50:48;;;;;;;12.60;3.53;;;;;;;;;;5107563;28;20180;-75
2023/01/30 03:53:13;;;;;;;8.23;3.30;;;;;;;;;;5087330;28;20201;-74
2023/01/30 03:55:39;;;;;;;10.87;3.90;;;;;;;;;;5109720;28;20196;-74
2023/01/30 03:58:04;;;;;;;9.87;3.77;;;;;;;;;;5111069;28;20168;-74
2023/01/30 04:00:30;;;;;;;9.50;3.90;;;;;;;;;;5109744;27;20289;-74
2023/01/30 04:02:56;;;;;;;12.33;4.37;;;;;;;;;;5108111;28;20183;-74
2023/01/30 04:05:21;;;;;;;14.30;3.87;;;;;;;;;;5111929;27;20819;-74
2023/01/30 04:07:46;;;;;;;12.03;3.90;;;;;;;;;;5101986;27;20170;-74
2023/01/30 04:10:14;;;;;;;10.93;4.47;;;;;;;;;;5110565;27;22260;-74
2023/01/30 04:12:39;;;;;;;11.57;3.90;;;;;;;;;;5094139;28;20232;-75
2023/01/30 04:15:05;;;;;;;13.10;4.00;;;;;;;;;;5090514;28;20222;-75
2023/01/30 04:17:30;;;;;;;8.53;3.10;;;;;;;;;;5117323;27;20193;-74
2023/01/30 04:19:55;;;;;;;10.17;3.63;;;;;;;;;;5104289;28;20191;-74
2023/01/30 04:22:20;;;;;;;9.63;3.40;;;;;;;;;;5093121;28;20274;-74
2023/01/30 04:24:45;;;;;;;9.13;3.60;;;;;;;;;;5094634;27;20236;-74
2023/01/30 04:27:11;;;;;;;12.13;3.70;;;;;;;;;;5113606;27;20176;-74
2023/01/30 04:29:36;;;;;;;9.63;3.50;;;;;;;;;;5098157;28;20176;-74
2023/01/30 04:32:01;;;;;;;11.17;3.83;;;;;;;;;;5090467;28;20240;-74
2023/01/30 04:34:27;;;;;;;10.50;4.03;;;;;;;;;;5091997;28;20665;-74
2023/01/30 04:36:52;;;;;;;14.10;3.27;;;;;;;;;;5104428;28;20172;-74
2023/01/30 04:39:17;;;;;;;15.43;3.80;;;;;;;;;;5110231;27;20175;-74
2023/01/30 04:41:42;;;;;;;8.27;2.80;;;;;;;;;;5079728;28;20183;-73
2023/01/30 04:44:07;;;;;;;15.67;3.07;;;;;;;;;;5107563;28;20685;-74
2023/01/30 04:46:33;;;;;;;12.60;2.43;;;;;;;;;;5108113;28;20168;-73
2023/01/30 04:48:58;;;;;;;11.33;3.30;;;;;;;;;;5104909;28;20533;-74
2023/01/30 04:51:23;;;;;;;10.13;2.73;;;;;;;;;;5107643;28;20171;-74
2023/01/30 04:53:48;;;;;;;9.30;2.20;;;;;;;;;;5099156;28;20226;-74
2023/01/30 04:56:13;;;;;;;8.93;2.47;;;;;;;;;;5107732;28;20203;-73
2023/01/30 04:58:39;;;;;;;10.07;2.50;;;;;;;;;;5103697;28;20549;-74
2023/01/30 05:01:22;;;;;;;6.87;2.40;;;;;;;;;;5099573;28;20203;-74
2023/01/30 05:06:23;;;;;;;7.70;2.03;;;;;;;;;;5092205;28;20316;-70
2023/01/30 05:08:49;;;;;;;8.83;3.00;;;;;;;;;;5092054;28;20260;-69
2023/01/30 05:11:14;;;;;;;2.70;1.53;;;;;;;;;;5091670;28;20271;-71
2023/01/30 05:13:39;;;;;;;7.53;1.93;;;;;;;;;;5086117;28;20703;-70
2023/01/30 05:16:05;;;;;;;9.33;2.40;;;;;;;;;;5080019;28;20203;-69
2023/01/30 05:18:30;;;;;;;9.20;2.83;;;;;;;;;;5063176;28;20184;-70
2023/01/30 05:21:01;;;;;;;8.50;2.20;;;;;;;;;;5083784;28;20175;-70
2023/01/30 05:23:27;;;;;;;7.97;2.00;;;;;;;;;;5084479;28;20175;-70
2023/01/30 05:25:52;;;;;;;11.60;2.37;;;;;;;;;;5079433;28;20718;-70
2023/01/30 05:28:17;;;;;;;4.33;1.97;;;;;;;;;;5075073;28;20185;-69
2023/01/30 05:30:42;;;;;;;11.30;2.30;;;;;;;;;;5087779;28;20219;-70
2023/01/30 05:33:07;;;;;;;7.33;3.37;;;;;;;;;;5070473;28;20269;-70
2023/01/30 05:35:32;;;;;;;5.80;2.00;;;;;;;;;;5070233;28;20208;-70
2023/01/30 05:37:58;;;;;;;10.00;2.00;;;;;;;;;;5088742;28;20687;-71
2023/01/30 05:40:23;;;;;;;11.07;3.30;;;;;;;;;;5084058;28;20180;-70
2023/01/30 05:42:48;;;;;;;8.20;2.50;;;;;;;;;;5075807;28;20208;-70
2023/01/30 05:45:13;;;;;;;15.57;2.30;;;;;;;;;;5079048;28;20188;-70
2023/01/30 05:47:38;;;;;;;10.70;2.27;;;;;;;;;;5082722;28;20287;-71
2023/01/30 05:50:04;;;;;;;8.60;2.90;;;;;;;;;;5080320;28;20660;-71
2023/01/30 05:52:30;;;;;;;16.67;2.30;;;;;;;;;;5084845;28;20234;-70
2023/01/30 05:54:55;;;;;;;12.23;2.23;;;;;;;;;;5067335;28;20736;-71
2023/01/30 05:57:20;;;;;;;12.77;3.33;;;;;;;;;;5087545;28;20168;-70
2023/01/30 05:59:45;;;;;;;11.83;2.63;;;;;;;;;;5084587;28;20184;-71
2023/01/30 06:02:10;;;;;;;12.43;2.93;;;;;;;;;;5086382;28;20220;-71
2023/01/30 06:04:36;;;;;;;24.83;3.70;;;;;;;;;;5080700;28;20555;-70
2023/01/30 06:07:01;;;;;;;12.67;2.60;;;;;;;;;;5089406;28;20180;-71
2023/01/30 06:09:26;;;;;;;11.07;3.07;;;;;;;;;;5082457;28;20234;-71
2023/01/30 06:11:51;;;;;;;17.23;3.03;;;;;;;;;;5084845;28;20176;-70
2023/01/30 06:14:16;;;;;;;13.90;2.87;;;;;;;;;;5084963;28;20301;-70
2023/01/30 06:16:42;;;;;;;15.30;3.57;;;;;;;;;;5086648;28;20614;-70
2023/01/30 06:19:07;;;;;;;16.03;3.43;;;;;;;;;;5084206;28;20837;-69
2023/01/30 06:21:32;;;;;;;16.10;2.33;;;;;;;;;;5092920;28;20180;-70
2023/01/30 06:23:57;;;;;;;19.63;3.87;;;;;;;;;;5093911;28;20268;-70
2023/01/30 06:26:23;;;;;;;16.90;3.47;;;;;;;;;;5086902;28;20185;-70
2023/01/30 06:28:48;;;;;;;14.30;2.87;;;;;;;;;;5062534;28;20626;-70
2023/01/30 06:31:13;;;;;;;18.53;3.03;;;;;;;;;;5084683;28;20267;-71
2023/01/30 06:33:39;;;;;;;14.83;3.60;;;;;;;;;;5071574;28;20181;-70
2023/01/30 06:36:04;;;;;;;16.40;2.93;;;;;;;;;;5089093;28;20208;-70
2023/01/30 06:38:29;;;;;;;14.37;3.40;;;;;;;;;;5081263;28;20814;-70
2023/01/30 06:40:55;;;;;;;14.63;3.37;;;;;;;;;;5086604;28;20561;-71
2023/01/30 06:43:20;;;;;;;11.50;2.60;;;;;;;;;;5090328;28;20220;-70
2023/01/30 06:45:45;;;;;;;15.93;3.60;;;;;;;;;;5069944;28;20192;-70
2023/01/30 06:48:10;;;;;;;14.27;2.83;;;;;;;;;;5091121;28;20184;-71
2023/01/30 06:50:36;;;;;;;21.63;3.63;;;;;;;;;;5067695;28;20207;-71
2023/01/30 06:53:02;;;;;;;13.73;2.93;;;;;;;;;;5090211;28;20183;-69
2023/01/30 06:55:27;;;;;;;12.13;3.10;;;;;;;;;;5084360;28;20587;-70
2023/01/30 06:58:03;;;;;;;17.27;2.80;;;;;;;;;;5065580;28;20187;-70
2023/01/30 07:00:28;;;;;;;11.20;2.70;;;;;;;;;;5052888;28;20188;-70
2023/01/30 07:02:54;;;;;;;13.07;3.13;;;;;;;;;;5083238;28;20172;-71
2023/01/30 07:05:19;;;;;;;12.20;2.53;;;;;;;;;;5085627;28;20485;-71
2023/01/30 07:07:44;;;;;;;8.43;2.33;;;;;;;;;;5089491;28;20187;-72
2023/01/30 07:10:10;;;;;;;20.40;2.87;;;;;;;;;;5091573;28;20192;-71
2023/01/30 07:12:36;;;;;;;17.80;3.20;;;;;;;;;;5069211;28;20552;-70
2023/01/30 07:15:02;;;;;;;10.23;2.17;;;;;;;;;;5092165;28;20214;-70
2023/01/30 07:17:27;;;;;;;19.13;3.23;;;;;;;;;;5070108;28;20176;-69
2023/01/30 07:19:52;;;;;;;12.47;3.07;;;;;;;;;;5088441;28;20176;-70
2023/01/30 07:22:18;;;;;;;13.07;2.50;;;;;;;;;;5085658;28;20180;-70
2023/01/30 07:24:43;;;;;;;13.73;2.47;;;;;;;;;;5086726;28;20277;-70
2023/01/30 07:27:09;;;;;;;16.57;3.47;;;;;;;;;;5084212;28;20180;-70
2023/01/30 07:29:34;;;;;;;14.27;3.20;;;;;;;;;;5084818;28;20199;-70
2023/01/30 07:31:59;;;;;;;16.70;3.53;;;;;;;;;;5084731;28;20215;-69
2023/01/30 07:34:25;;;;;;;14.03;3.00;;;;;;;;;;5084571;28;20239;-71
2023/01/30 07:36:50;;;;;;;16.27;3.87;;;;;;;;;;5089727;28;20630;-69
2023/01/30 07:39:15;;;;;;;11.53;2.60;;;;;;;;;;5089102;28;20644;-71
2023/01/30 07:41:40;;;;;;;17.10;2.57;;;;;;;;;;5064417;28;20176;-71
2023/01/30 07:44:06;;;;;;;10.97;2.83;;;;;;;;;;5093977;28;20229;-71
2023/01/30 07:46:33;;;;;;;11.57;3.07;;;;;;;;;;5093428;28;20572;-72
2023/01/30 07:49:02;;;;;;;12.63;3.17;;;;;;;;;;5103281;28;20533;-70
2023/01/30 07:51:27;;;;;;;9.77;2.40;;;;;;;;;;5082885;28;20173;-70
2023/01/30 07:53:52;;;;;;;19.47;3.30;;;;;;;;;;5091029;28;20634;-70
2023/01/30 07:56:19;;;;;;;17.27;2.83;;;;;;;;;;5085732;28;20261;-70
2023/01/30 07:58:44;;;;;;;9.70;2.70;;;;;;;;;;5076467;28;20594;-70
2023/01/30 08:01:09;;;;;;;10.50;2.57;;;;;;;;;;5085785;28;20207;-70
2023/01/30 08:03:35;;;;;;;15.57;3.67;;;;;;;;;;5083674;28;20168;-70
2023/01/30 08:06:00;;;;;;;13.90;2.63;;;;;;;;;;5069543;28;20223;-70
2023/01/30 08:08:25;;;;;;;10.20;2.63;;;;;;;;;;5091209;28;20208;-70
2023/01/30 08:10:50;;;;;;;19.00;2.73;;;;;;;;;;5091089;28;20169;-70
2023/01/30 08:13:15;;;;;;;14.77;2.33;;;;;;;;;;5059205;28;20631;-70
2023/01/30 08:15:41;;;;;;;8.03;2.43;;;;;;;;;;5091838;28;20196;-69
2023/01/30 08:18:06;;;;;;;14.13;2.93;;;;;;;;;;5091780;28;20466;-70
2023/01/30 08:20:31;;;;;;;18.67;2.53;;;;;;;;;;5090664;28;20204;-70
2023/01/30 08:22:57;;;;;;;7.17;2.20;;;;;;;;;;5092886;28;20263;-69
2023/01/30 08:25:22;;;;;;;10.83;2.13;;;;;;;;;;5080942;28;20205;-70
2023/01/30 08:27:48;;;;;;;10.93;2.40;;;;;;;;;;5086049;28;20177;-69
2023/01/30 08:30:13;;;;;;;11.87;2.73;;;;;;;;;;5083274;28;20184;-70
2023/01/30 08:32:38;;;;;;;11.40;2.37;;;;;;;;;;5097048;28;20176;-70
2023/01/30 08:35:04;;;;;;;14.07;2.40;;;;;;;;;;5084541;28;20208;-71
2023/01/30 08:37:29;;;;;;;10.07;2.63;;;;;;;;;;5091695;28;20176;-70
2023/01/30 08:39:54;;;;;;;13.87;3.03;;;;;;;;;;5091486;28;20195;-71
2023/01/30 08:42:19;;;;;;;15.47;3.00;;;;;;;;;;5090638;28;20180;-70
2023/01/30 08:44:44;;;;;;;10.90;2.60;;;;;;;;;;5080878;28;20279;-71
2023/01/30 08:47:10;;;;;;;15.30;2.07;;;;;;;;;;5084088;28;20214;-71
2023/01/30 08:49:35;;;;;;;7.27;2.00;;;;;;;;;;5068846;28;20556;-72
2023/01/30 08:52:00;;;;;;;12.30;2.10;;;;;;;;;;5077736;28;20620;-70
2023/01/30 08:54:25;;;;;;;9.97;1.80;;;;;;;;;;5079961;28;20195;-71
2023/01/30 08:56:51;;;;;;;16.70;2.63;;;;;;;;;;5076699;28;20595;-71
2023/01/30 08:59:16;;;;;;;16.93;3.80;;;;;;;;;;5091193;28;20168;-71
2023/01/30 09:01:41;;;;;;;14.40;3.77;;;;;;;;;;5087825;28;20595;-71
2023/01/30 09:04:07;;;;;;;7.77;2.17;;;;;;;;;;5080724;28;20185;-70
2023/01/30 09:06:32;;;;;;;9.20;2.60;;;;;;;;;;5076615;28;20216;-70
2023/01/30 09:08:58;;;;;;;14.87;4.10;;;;;;;;;;5090596;28;20183;-70
2023/01/30 09:11:23;;;;;;;15.83;2.90;;;;;;;;;;5081577;28;20181;-70
2023/01/30 09:13:48;;;;;;;12.43;2.30;;;;;;;;;;5079258;28;20165;-70
2023/01/30 09:16:13;;;;;;;12.00;2.60;;;;;;;;;;5078743;28;20209;-71
2023/01/30 09:18:39;;;;;;;13.63;2.93;;;;;;;;;;5086275;28;20602;-70
2023/01/30 09:21:04;;;;;;;14.87;3.37;;;;;;;;;;5086768;28;20677;-71
2023/01/30 09:23:30;;;;;;;10.33;2.27;;;;;;;;;;5082475;28;20285;-70
2023/01/30 09:25:55;;;;;;;10.23;2.37;;;;;;;;;;5083738;28;20299;-71
2023/01/30 09:28:20;;;;;;;14.07;2.30;;;;;;;;;;5072390;28;20279;-70
2023/01/30 09:30:45;;;;;;;15.87;2.97;;;;;;;;;;5082193;28;20221;-71
2023/01/30 09:33:11;;;;;;;10.20;1.93;;;;;;;;;;5080879;28;20240;-70
2023/01/30 09:35:36;;;;;;;18.93;3.00;;;;;;;;;;5085665;28;20197;-71
2023/01/30 09:38:03;;;;;;;9.67;2.70;;;;;;;;;;5081199;28;20177;-70
2023/01/30 09:40:30;;;;;;;10.53;2.30;;;;;;;;;;5088042;28;20181;-71
2023/01/30 09:42:55;;;;;;;6.07;2.17;;;;;;;;;;5080036;28;20252;-70
2023/01/30 09:45:20;;;;;;;13.93;3.07;;;;;;;;;;5089139;28;20262;-71
2023/01/30 09:47:48;;;;;;;12.40;4.37;;;;;;;;;;5089598;28;20183;-70
2023/01/30 09:50:14;;;;;;;14.40;3.90;;;;;;;;;;5090384;28;20229;-70
2023/01/30 09:52:42;;;;;;;11.57;2.80;;;;;;;;;;5087266;28;20177;-71
2023/01/30 09:55:16;;;;;;;12.37;2.63;;;;;;;;;;5082367;28;20623;-70
2023/01/30 09:57:42;;;;;;;16.27;2.60;;;;;;;;;;5092282;28;20669;-70
2023/01/30 10:00:26;;;;;;;12.63;4.03;;;;;;;;;;5093642;28;20672;-70
2023/01/30 10:03:00;;;;;;;10.00;2.70;;;;;;;;;;5093339;28;20221;-71
2023/01/30 10:05:29;;;;;;;8.67;2.50;;;;;;;;;;5082463;28;20311;-70
2023/01/30 10:08:01;;;;;;;12.87;3.23;;;;;;;;;;5091627;28;20183;-71
2023/01/30 10:10:29;;;;;;;14.17;3.47;;;;;;;;;;5088476;28;20173;-71
2023/01/30 10:13:04;;;;;;;13.77;2.50;;;;;;;;;;5089047;28;20196;-71
2023/01/30 10:15:48;;;;;;;8.93;1.70;;;;;;;;;;5090663;28;20474;-71
2023/01/30 10:18:33;;;;;;;8.20;2.20;;;;;;;;;;5081931;28;20187;-70
2023/01/30 10:21:05;;;;;;;12.73;3.57;;;;;;;;;;5086560;28;20560;-71
2023/01/30 10:23:30;;;;;;;9.37;2.33;;;;;;;;;;5082037;28;20550;-70
2023/01/30 10:25:58;;;;;;;12.10;1.93;;;;;;;;;;5083146;28;20200;-71
2023/01/30 10:28:24;;;;;;;9.67;2.17;;;;;;;;;;5082798;28;20173;-71
2023/01/30 10:30:51;;;;;;;17.90;2.90;;;;;;;;;;5092218;28;20187;-71
2023/01/30 10:33:28;;;;;;;18.60;2.90;;;;;;;;;;5083801;28;20181;-70
2023/01/30 10:36:01;;;;;;;9.57;2.73;;;;;;;;;;5091959;28;20203;-70
2023/01/30 10:38:34;;;;;;;11.97;2.30;;;;;;;;;;5083509;28;20173;-70
2023/01/30 10:41:06;;;;;;;19.10;2.73;;;;;;;;;;5074956;28;20211;-70
2023/01/30 10:44:04;;;;;;;14.47;3.40;;;;;;;;;;5091858;28;20168;-70
2023/01/30 10:46:32;;;;;;;13.73;2.70;;;;;;;;;;5042750;28;20273;-70
2023/01/30 10:49:00;;;;;;;11.10;2.60;;;;;;;;;;5081792;28;20251;-71
2023/01/30 10:51:25;;;;;;;10.60;3.10;;;;;;;;;;5077107;28;20188;-71
2023/01/30 10:53:50;;;;;;;15.77;2.80;;;;;;;;;;5082996;28;20176;-71
2023/01/30 10:56:34;;;;;;;16.07;2.90;;;;;;;;;;5085041;28;20241;-71
2023/01/30 10:59:14;;;;;;;17.07;3.10;;;;;;;;;;5082228;28;20180;-70
2023/01/30 11:01:42;;;;;;;12.93;2.93;;;;;;;;;;5091210;28;20533;-70
2023/01/30 11:04:26;;;;;;;18.17;3.40;;;;;;;;;;5092159;28;20172;-71
2023/01/30 11:06:52;;;;;;;15.37;3.10;;;;;;;;;;5117621;22;20689;-74
2023/01/30 11:09:17;;;;;;;10.77;2.57;;;;;;;;;;5110263;28;20179;-73
2023/01/30 11:11:51;;;;;;;11.77;3.37;;;;;;;;;;5112635;28;20176;-73
2023/01/30 11:14:16;;;;;;;20.63;3.23;;;;;;;;;;5093582;28;20261;-74
2023/01/30 11:16:42;;;;;;;18.63;3.27;;;;;;;;;;5116566;27;20281;-74
2023/01/30 11:19:08;;;;;;;14.20;2.83;;;;;;;;;;5126691;27;20183;-74
2023/01/30 11:21:33;;;;;;;16.67;3.10;;;;;;;;;;5130414;27;20198;-74
2023/01/30 11:24:02;;;;;;;12.33;3.10;;;;;;;;;;5133309;27;20175;-73
2023/01/30 11:26:32;;;;;;;19.40;4.03;;;;;;;;;;5106688;27;20206;-75
2023/01/30 11:28:57;;;;;;;14.20;2.83;;;;;;;;;;5127118;27;20180;-74
2023/01/30 11:31:26;;;;;;;15.20;3.27;;;;;;;;;;5123853;27;20171;-76
2023/01/30 11:34:18;;;;;;;18.27;3.20;;;;;;;;;;5133737;27;20232;-74
2023/01/30 11:36:45;;;;;;;15.20;3.03;;;;;;;;;;5129971;27;20267;-74
2023/01/30 11:39:11;;;;;;;18.43;2.87;;;;;;;;;;5125832;27;20175;-74
2023/01/30 11:41:39;;;;;;;15.53;3.57;;;;;;;;;;5131019;27;20175;-73
2023/01/30 11:44:05;;;;;;;13.40;3.63;;;;;;;;;;5124525;27;20258;-74
2023/01/30 11:46:33;;;;;;;14.37;3.83;;;;;;;;;;5132813;27;20630;-74
2023/01/30 11:49:02;;;;;;;17.77;5.37;;;;;;;;;;5130684;27;20545;-74
2023/01/30 11:51:28;;;;;;;19.57;4.00;;;;;;;;;;5123493;27;20171;-74
2023/01/30 11:53:55;;;;;;;13.73;2.87;;;;;;;;;;5107142;27;20756;-73
2023/01/30 11:56:20;;;;;;;16.87;2.70;;;;;;;;;;5124758;27;20233;-73
2023/01/30 11:58:52;;;;;;;12.57;3.57;;;;;;;;;;5122354;27;20195;-74
2023/01/30 12:01:17;;;;;;;16.67;3.57;;;;;;;;;;5115967;27;20590;-74
2023/01/30 12:03:52;;;;;;;12.67;2.80;;;;;;;;;;5124047;27;20279;-73
2023/01/30 12:06:28;;;;;;;14.50;2.53;;;;;;;;;;5121361;27;20589;-74
2023/01/30 12:08:53;;;;;;;11.77;2.77;;;;;;;;;;5120755;27;20266;-74
2023/01/30 12:11:25;;;;;;;16.83;4.30;;;;;;;;;;5120605;27;20631;-74
2023/01/30 12:13:51;;;;;;;6.10;2.13;;;;;;;;;;5118658;27;20167;-74
2023/01/30 12:16:19;;;;;;;10.03;2.33;;;;;;;;;;5126687;27;20207;-73
2023/01/30 12:18:50;;;;;;;14.00;3.10;;;;;;;;;;5125641;27;20173;-74
2023/01/30 12:21:24;;;;;;;14.50;4.73;;;;;;;;;;5127214;27;20191;-74
2023/01/30 12:23:49;;;;;;;20.87;5.50;;;;;;;;;;5130458;27;20166;-72
2023/01/30 12:26:19;;;;;;;12.50;3.70;;;;;;;;;;5130853;27;20617;-74
2023/01/30 12:28:47;;;;;;;15.43;3.40;;;;;;;;;;5132000;27;20178;-74
2023/01/30 12:31:12;;;;;;;21.00;3.53;;;;;;;;;;5119302;27;20183;-74
2023/01/30 12:33:37;;;;;;;12.63;2.33;;;;;;;;;;5128753;27;20171;-74
2023/01/30 12:36:21;;;;;;;10.97;3.70;;;;;;;;;;5122955;27;20199;-73
2023/01/30 12:39:10;;;;;;;10.10;3.17;;;;;;;;;;5127740;27;20801;-73
2023/01/30 12:41:51;;;;;;;17.30;2.60;;;;;;;;;;5129438;27;20189;-73
2023/01/30 12:44:25;;;;;;;15.77;2.60;;;;;;;;;;5125622;27;20190;-73
2023/01/30 12:47:02;;;;;;;15.13;2.97;;;;;;;;;;5117725;27;20518;-73
2023/01/30 12:49:27;;;;;;;19.73;3.13;;;;;;;;;;5131681;27;20167;-73
2023/01/30 12:52:05;;;;;;;16.63;2.93;;;;;;;;;;5126790;27;20522;-73
2023/01/30 12:54:45;;;;;;;11.87;3.77;;;;;;;;;;5124187;27;20683;-73
2023/01/30 12:57:10;;;;;;;10.27;2.47;;;;;;;;;;5124653;27;20249;-73
2023/01/30 12:59:36;;;;;;;16.20;3.67;;;;;;;;;;5120101;27;20184;-73
2023/01/30 13:02:19;;;;;;;21.20;3.43;;;;;;;;;;5105838;28;20175;-73
2023/01/30 13:05:03;;;;;;;14.13;5.00;;;;;;;;;;5117661;27;20285;-73
2023/01/30 13:07:43;;;;;;;20.87;2.97;;;;;;;;;;5130920;27;20562;-73
2023/01/30 13:10:08;;;;;;;11.43;2.90;;;;;;;;;;5121986;28;20171;-73
2023/01/30 13:12:37;;;;;;;12.83;3.50;;;;;;;;;;5125625;27;20331;-75
2023/01/30 13:15:05;;;;;;;13.73;3.20;;;;;;;;;;5128308;28;20247;-73
2023/01/30 13:17:30;;;;;;;16.40;2.93;;;;;;;;;;5118087;28;20171;-73
2023/01/30 13:20:15;;;;;;;17.70;4.43;;;;;;;;;;5120649;27;20308;-73
2023/01/30 13:22:52;;;;;;;17.00;3.33;;;;;;;;;;5107718;28;20652;-73
2023/01/30 13:25:35;;;;;;;16.50;3.30;;;;;;;;;;5127559;27;20198;-73
2023/01/30 13:28:06;;;;;;;17.10;2.90;;;;;;;;;;5107020;28;20179;-72
2023/01/30 13:30:33;;;;;;;11.20;2.80;;;;;;;;;;5121512;27;20186;-73
2023/01/30 13:33:02;;;;;;;21.50;4.70;;;;;;;;;;5125574;27;20202;-74
2023/01/30 13:35:31;;;;;;;20.20;3.70;;;;;;;;;;5116838;27;20291;-74
2023/01/30 13:37:57;;;;;;;17.57;3.00;;;;;;;;;;5105615;27;20178;-74
2023/01/30 13:40:37;;;;;;;26.50;3.30;;;;;;;;;;5124893;27;20640;-74
2023/01/30 13:43:12;;;;;;;25.77;3.27;;;;;;;;;;5105390;27;20174;-73
2023/01/30 13:45:41;;;;;;;17.73;3.33;;;;;;;;;;5108760;27;20194;-73
2023/01/30 13:48:21;;;;;;;9.33;3.10;;;;;;;;;;5125002;27;20183;-73
2023/01/30 13:51:01;;;;;;;17.07;6.13;;;;;;;;;;5126020;27;20232;-73
2023/01/30 13:53:33;;;;;;;17.03;3.43;;;;;;;;;;5125373;27;20178;-73
2023/01/30 13:56:08;;;;;;;15.93;3.10;;;;;;;;;;5124117;27;20748;-73
2023/01/30 13:58:40;;;;;;;17.77;3.10;;;;;;;;;;5124365;27;20175;-73
2023/01/30 14:01:05;;;;;;;18.03;4.07;;;;;;;;;;5123451;27;20243;-73
2023/01/30 14:03:31;;;;;;;11.03;3.27;;;;;;;;;;5124306;27;20640;-74
2023/01/30 14:05:58;;;;;;;12.80;2.80;;;;;;;;;;5124691;27;20223;-74
2023/01/30 14:08:37;;;;;;;18.63;3.87;;;;;;;;;;5102487;27;20625;-74
2023/01/30 14:11:02;;;;;;;19.80;3.33;;;;;;;;;;5108959;27;20232;-73
2023/01/30 14:13:27;;;;;;;14.70;3.43;;;;;;;;;;5115335;27;20207;-73
2023/01/30 14:15:55;;;;;;;13.07;2.67;;;;;;;;;;5121476;27;20226;-73
2023/01/30 14:18:30;;;;;;;18.50;3.80;;;;;;;;;;5126346;27;20260;-73
2023/01/30 14:21:24;;;;;;;12.30;2.80;;;;;;;;;;5127557;27;20638;-73
2023/01/30 14:23:56;;;;;;;18.13;4.33;;;;;;;;;;5118653;27;20606;-74
2023/01/30 14:26:40;;;;;;;22.60;4.27;;;;;;;;;;5125858;27;20209;-74
2023/01/30 14:29:06;;;;;;;11.63;2.70;;;;;;;;;;5106031;27;20849;-73
2023/01/30 14:31:45;;;;;;;16.63;3.23;;;;;;;;;;5111666;27;20281;-73
2023/01/30 14:34:31;;;;;;;12.63;2.77;;;;;;;;;;5122809;27;20179;-73
2023/01/30 14:36:56;;;;;;;12.77;3.50;;;;;;;;;;5112296;27;20228;-73
2023/01/30 14:39:35;;;;;;;13.30;2.90;;;;;;;;;;5109663;28;20187;-73
2023/01/30 14:42:11;;;;;;;14.83;3.30;;;;;;;;;;5124378;27;20207;-73
2023/01/30 14:44:54;;;;;;;12.70;3.20;;;;;;;;;;5119047;27;20191;-73